Onon Hill, New York
Current Conditions -  °F | °C
As of 1:54 PM on Friday 28 Nov 2014 (Local Time) from KSYR Reporting Station
Light Snow Light Snow  
Wind Chill: 12°   Ceiling: 4400
Heat Index: 26°   Visibility: 8mi
Dew Point: 17°   Wind: 21mph
Humidity: 69%   Direction: 240°WSW
Pressure: 30.19"   Gusts: NA
Location:  42.9779°N, 76.2271°W
Report Text: KSYR 281854Z 24018KT 8SM -SN SCT026 BKN044 OVC055 M03/M08 A3019 RMK AO2 SLP227 P0000 T10331083 $
Loading
Personal Weather Stations






























Interactive Weather Map New forecast layout! Learn more

10-Day Weather Forecast

Advertisements
Track Severe Weather on mobile